sensor_id;sensor_type;location;lat;lon;timestamp;pressure;altitude;pressure_sealevel;temperature;humidity
72157;BME280;60035;52.122;5.406;2023-04-19T00:01:15;103003.84;;;8.96;78.02
72157;BME280;60035;52.122;5.406;2023-04-19T00:03:42;102994.44;;;8.93;78.47
72157;BME280;60035;52.122;5.406;2023-04-19T00:06:09;102997.00;;;8.92;78.44
72157;BME280;60035;52.122;5.406;2023-04-19T00:08:36;102996.09;;;8.90;78.40
72157;BME280;60035;52.122;5.406;2023-04-19T00:11:02;102992.69;;;8.89;78.78
72157;BME280;60035;52.122;5.406;2023-04-19T00:13:29;102998.66;;;8.88;78.81
72157;BME280;60035;52.122;5.406;2023-04-19T00:15:55;102995.22;;;8.88;79.06
72157;BME280;60035;52.122;5.406;2023-04-19T00:18:22;102999.47;;;8.86;79.36
72157;BME280;60035;52.122;5.406;2023-04-19T00:20:48;102998.56;;;8.83;79.61
72157;BME280;60035;52.122;5.406;2023-04-19T00:23:15;103000.25;;;8.81;79.61
72157;BME280;60035;52.122;5.406;2023-04-19T00:25:42;102996.81;;;8.79;79.78
72157;BME280;60035;52.122;5.406;2023-04-19T00:28:08;102992.53;;;8.78;79.55
72157;BME280;60035;52.122;5.406;2023-04-19T00:30:35;102993.41;;;8.77;80.16
72157;BME280;60035;52.122;5.406;2023-04-19T00:33:02;102998.50;;;8.76;80.09
72157;BME280;60035;52.122;5.406;2023-04-19T00:35:28;102989.06;;;8.72;80.14
72157;BME280;60035;52.122;5.406;2023-04-19T00:37:55;102993.28;;;8.68;80.58
72157;BME280;60035;52.122;5.406;2023-04-19T00:40:21;102988.09;;;8.63;80.48
72157;BME280;60035;52.122;5.406;2023-04-19T00:42:48;102983.78;;;8.59;80.73
72157;BME280;60035;52.122;5.406;2023-04-19T00:45:14;102988.88;;;8.56;81.13
72157;BME280;60035;52.122;5.406;2023-04-19T00:47:41;102986.25;;;8.52;81.39
72157;BME280;60035;52.122;5.406;2023-04-19T00:50:09;102981.94;;;8.49;81.45
72157;BME280;60035;52.122;5.406;2023-04-19T00:52:36;102987.81;;;8.45;81.50
72157;BME280;60035;52.122;5.406;2023-04-19T00:55:04;102980.91;;;8.38;81.97
72157;BME280;60035;52.122;5.406;2023-04-19T00:57:30;102981.72;;;8.35;81.99
72157;BME280;60035;52.122;5.406;2023-04-19T00:59:57;102982.53;;;8.31;82.45
72157;BME280;60035;52.122;5.406;2023-04-19T01:02:24;102975.69;;;8.28;82.45
72157;BME280;60035;52.122;5.406;2023-04-19T01:04:51;102972.22;;;8.25;82.86
72157;BME280;60035;52.122;5.406;2023-04-19T01:07:18;102966.19;;;8.20;82.79
72157;BME280;60035;52.122;5.406;2023-04-19T01:09:45;102968.69;;;8.16;83.20
72157;BME280;60035;52.122;5.406;2023-04-19T01:12:12;102967.81;;;8.16;83.27
72157;BME280;60035;52.122;5.406;2023-04-19T01:14:38;102962.69;;;8.14;83.62
72157;BME280;60035;52.122;5.406;2023-04-19T01:17:06;102969.53;;;8.15;83.95
72157;BME280;60035;52.122;5.406;2023-04-19T01:19:33;102966.13;;;8.15;84.24
72157;BME280;60035;52.122;5.406;2023-04-19T01:22:02;102970.44;;;8.19;84.91
72157;BME280;60035;52.122;5.406;2023-04-19T01:24:29;102971.31;;;8.23;85.04
72157;BME280;60035;52.122;5.406;2023-04-19T01:26:56;102967.94;;;8.22;84.91
72157;BME280;60035;52.122;5.406;2023-04-19T01:29:22;102966.28;;;8.26;84.90
72157;BME280;60035;52.122;5.406;2023-04-19T01:31:49;102971.41;;;8.27;85.10
72157;BME280;60035;52.122;5.406;2023-04-19T01:34:19;102970.63;;;8.31;85.31
72157;BME280;60035;52.122;5.406;2023-04-19T01:36:45;102962.13;;;8.32;85.52
72157;BME280;60035;52.122;5.406;2023-04-19T01:39:12;102964.72;;;8.36;85.55
72157;BME280;60035;52.122;5.406;2023-04-19T01:41:39;102967.25;;;8.36;85.67
72157;BME280;60035;52.122;5.406;2023-04-19T01:44:06;102960.50;;;8.38;86.18
72157;BME280;60035;52.122;5.406;2023-04-19T01:46:32;102972.47;;;8.42;86.22
72157;BME280;60035;52.122;5.406;2023-04-19T01:48:59;102963.19;;;8.45;86.37
72157;BME280;60035;52.122;5.406;2023-04-19T01:51:26;102963.22;;;8.47;86.71
72157;BME280;60035;52.122;5.406;2023-04-19T01:53:52;102964.06;;;8.49;86.41
72157;BME280;60035;52.122;5.406;2023-04-19T01:56:20;102969.25;;;8.52;86.64
72157;BME280;60035;52.122;5.406;2023-04-19T01:58:49;102963.31;;;8.55;86.50
72157;BME280;60035;52.122;5.406;2023-04-19T02:01:16;102971.84;;;8.57;86.54
72157;BME280;60035;52.122;5.406;2023-04-19T02:03:43;102967.63;;;8.60;86.69
72157;BME280;60035;52.122;5.406;2023-04-19T02:06:11;102960.81;;;8.61;86.67
72157;BME280;60035;52.122;5.406;2023-04-19T02:08:41;102965.09;;;8.62;87.05
72157;BME280;60035;52.122;5.406;2023-04-19T02:11:09;102963.44;;;8.64;86.97
72157;BME280;60035;52.122;5.406;2023-04-19T02:13:36;102965.16;;;8.66;86.99
72157;BME280;60035;52.122;5.406;2023-04-19T02:16:03;102966.88;;;8.67;87.23
72157;BME280;60035;52.122;5.406;2023-04-19T02:18:31;102955.00;;;8.70;87.29
72157;BME280;60035;52.122;5.406;2023-04-19T02:20:58;102961.00;;;8.73;87.51
72157;BME280;60035;52.122;5.406;2023-04-19T02:23:25;102959.28;;;8.74;87.21
72157;BME280;60035;52.122;5.406;2023-04-19T02:25:52;102955.91;;;8.76;87.19
72157;BME280;60035;52.122;5.406;2023-04-19T02:28:18;102963.63;;;8.79;87.25
72157;BME280;60035;52.122;5.406;2023-04-19T02:30:45;102961.94;;;8.80;87.38
72157;BME280;60035;52.122;5.406;2023-04-19T02:33:12;102959.38;;;8.81;87.33
72157;BME280;60035;52.122;5.406;2023-04-19T02:35:38;102958.56;;;8.84;87.44
72157;BME280;60035;52.122;5.406;2023-04-19T02:38:05;102964.53;;;8.86;87.75
72157;BME280;60035;52.122;5.406;2023-04-19T02:40:31;102965.44;;;8.88;87.47
72157;BME280;60035;52.122;5.406;2023-04-19T02:42:58;102975.66;;;8.90;87.41
72157;BME280;60035;52.122;5.406;2023-04-19T02:45:25;102971.41;;;8.90;87.57
72157;BME280;60035;52.122;5.406;2023-04-19T02:47:51;102969.72;;;8.91;87.65
72157;BME280;60035;52.122;5.406;2023-04-19T02:50:18;102974.84;;;8.94;87.59
72157;BME280;60035;52.122;5.406;2023-04-19T02:52:44;102968.09;;;8.96;87.42
72157;BME280;60035;52.122;5.406;2023-04-19T02:55:11;102971.47;;;8.96;87.44
72157;BME280;60035;52.122;5.406;2023-04-19T02:57:38;102970.66;;;8.97;87.22
72157;BME280;60035;52.122;5.406;2023-04-19T03:00:05;102965.53;;;8.97;87.21
72157;BME280;60035;52.122;5.406;2023-04-19T03:02:32;102965.56;;;8.99;87.34
72157;BME280;60035;52.122;5.406;2023-04-19T03:04:58;102963.84;;;8.99;87.45
72157;BME280;60035;52.122;5.406;2023-04-19T03:07:25;102963.84;;;8.99;87.48
72157;BME280;60035;52.122;5.406;2023-04-19T03:09:51;102966.44;;;9.03;87.56
72157;BME280;60035;52.122;5.406;2023-04-19T03:12:18;102965.63;;;9.04;87.37
72157;BME280;60035;52.122;5.406;2023-04-19T03:14:45;102953.69;;;9.04;87.09
72157;BME280;60035;52.122;5.406;2023-04-19T03:17:11;102956.25;;;9.06;86.92
72157;BME280;60035;52.122;5.406;2023-04-19T03:19:38;102958.81;;;9.07;87.05
72157;BME280;60035;52.122;5.406;2023-04-19T03:22:05;102960.53;;;9.08;86.96
72157;BME280;60035;52.122;5.406;2023-04-19T03:24:31;102962.25;;;9.09;86.80
72157;BME280;60035;52.122;5.406;2023-04-19T03:27:02;102953.75;;;9.10;86.72
72157;BME280;60035;52.122;5.406;2023-04-19T03:29:28;102956.34;;;9.12;86.88
72157;BME280;60035;52.122;5.406;2023-04-19T03:31:55;102961.44;;;9.13;87.12
72157;BME280;60035;52.122;5.406;2023-04-19T03:34:22;102958.06;;;9.13;86.65
72157;BME280;60035;52.122;5.406;2023-04-19T03:36:48;102949.50;;;9.12;86.65
72157;BME280;60035;52.122;5.406;2023-04-19T03:39:15;102948.69;;;9.13;86.83
72157;BME280;60035;52.122;5.406;2023-04-19T03:41:42;102948.66;;;9.12;87.06
72157;BME280;60035;52.122;5.406;2023-04-19T03:44:08;102950.41;;;9.14;86.79
72157;BME280;60035;52.122;5.406;2023-04-19T03:46:35;102950.41;;;9.17;86.60
72157;BME280;60035;52.122;5.406;2023-04-19T03:49:01;102958.91;;;9.16;86.42
72157;BME280;60035;52.122;5.406;2023-04-19T03:51:28;102951.25;;;9.16;86.51
72157;BME280;60035;52.122;5.406;2023-04-19T03:53:55;102945.28;;;9.16;86.69
72157;BME280;60035;52.122;5.406;2023-04-19T03:56:22;102955.50;;;9.13;86.38
72157;BME280;60035;52.122;5.406;2023-04-19T03:58:50;102946.94;;;9.09;86.29
72157;BME280;60035;52.122;5.406;2023-04-19T04:01:20;102949.41;;;9.05;86.11
72157;BME280;60035;52.122;5.406;2023-04-19T04:03:47;102943.41;;;8.99;86.16
72157;BME280;60035;52.122;5.406;2023-04-19T04:06:14;102952.75;;;8.94;86.01
72157;BME280;60035;52.122;5.406;2023-04-19T04:08:41;102948.41;;;8.90;85.76
72157;BME280;60035;52.122;5.406;2023-04-19T04:11:08;102950.94;;;8.87;86.28
72157;BME280;60035;52.122;5.406;2023-04-19T04:13:34;102952.59;;;8.83;86.53
72157;BME280;60035;52.122;5.406;2023-04-19T04:16:01;102952.56;;;8.80;86.43
72157;BME280;60035;52.122;5.406;2023-04-19T04:18:28;102944.00;;;8.78;86.34
72157;BME280;60035;52.122;5.406;2023-04-19T04:20:54;102952.53;;;8.76;86.54
72157;BME280;60035;52.122;5.406;2023-04-19T04:23:21;102956.72;;;8.72;86.13
72157;BME280;60035;52.122;5.406;2023-04-19T04:25:58;102957.56;;;8.71;86.16
72157;BME280;60035;52.122;5.406;2023-04-19T04:28:30;102958.34;;;8.67;86.38
72157;BME280;60035;52.122;5.406;2023-04-19T04:30:58;102959.19;;;8.64;86.53
72157;BME280;60035;52.122;5.406;2023-04-19T04:33:27;102950.59;;;8.59;86.28
72157;BME280;60035;52.122;5.406;2023-04-19T04:35:54;102949.69;;;8.56;86.53
72157;BME280;60035;52.122;5.406;2023-04-19T04:38:21;102951.38;;;8.52;86.24
72157;BME280;60035;52.122;5.406;2023-04-19T04:40:51;102958.97;;;8.49;86.29
72157;BME280;60035;52.122;5.406;2023-04-19T04:43:20;102958.88;;;8.44;86.21
72157;BME280;60035;52.122;5.406;2023-04-19T04:45:47;102957.13;;;8.40;86.30
72157;BME280;60035;52.122;5.406;2023-04-19T04:48:14;102956.25;;;8.38;86.25
72157;BME280;60035;52.122;5.406;2023-04-19T04:50:41;102958.75;;;8.35;86.55
72157;BME280;60035;52.122;5.406;2023-04-19T04:53:07;102947.63;;;8.30;86.35
72157;BME280;60035;52.122;5.406;2023-04-19T04:55:38;102951.00;;;8.27;86.42
72157;BME280;60035;52.122;5.406;2023-04-19T04:58:04;102955.19;;;8.24;86.49
72157;BME280;60035;52.122;5.406;2023-04-19T05:00:31;102956.81;;;8.20;86.40
72157;BME280;60035;52.122;5.406;2023-04-19T05:02:58;102959.31;;;8.15;86.71
72157;BME280;60035;52.122;5.406;2023-04-19T05:05:25;102960.16;;;8.14;86.53
72157;BME280;60035;52.122;5.406;2023-04-19T05:07:51;102960.13;;;8.13;86.66
72157;BME280;60035;52.122;5.406;2023-04-19T05:10:18;102967.78;;;8.11;86.38
72157;BME280;60035;52.122;5.406;2023-04-19T05:12:45;102965.19;;;8.10;86.90
72157;BME280;60035;52.122;5.406;2023-04-19T05:15:11;102966.03;;;8.10;86.28
72157;BME280;60035;52.122;5.406;2023-04-19T05:17:38;102955.81;;;8.09;86.38
72157;BME280;60035;52.122;5.406;2023-04-19T05:20:04;102960.03;;;8.07;86.57
72157;BME280;60035;52.122;5.406;2023-04-19T05:22:31;102971.97;;;8.08;85.89
72157;BME280;60035;52.122;5.406;2023-04-19T05:24:58;102965.13;;;8.05;85.81
72157;BME280;60035;52.122;5.406;2023-04-19T05:27:24;102965.09;;;8.04;85.62
72157;BME280;60035;52.122;5.406;2023-04-19T05:29:51;102965.94;;;8.04;85.03
72157;BME280;60035;52.122;5.406;2023-04-19T05:32:18;102969.34;;;8.03;84.66
72157;BME280;60035;52.122;5.406;2023-04-19T05:34:44;102961.72;;;8.05;84.62
72157;BME280;60035;52.122;5.406;2023-04-19T05:37:11;102971.13;;;8.07;84.32
72157;BME280;60035;52.122;5.406;2023-04-19T05:39:37;102968.56;;;8.07;83.62
72157;BME280;60035;52.122;5.406;2023-04-19T05:42:04;102970.25;;;8.08;83.38
72157;BME280;60035;52.122;5.406;2023-04-19T05:44:31;102973.69;;;8.09;82.66
72157;BME280;60035;52.122;5.406;2023-04-19T05:46:58;102977.09;;;8.11;82.07
72157;BME280;60035;52.122;5.406;2023-04-19T05:49:24;102975.44;;;8.13;81.43
72157;BME280;60035;52.122;5.406;2023-04-19T05:51:51;102973.78;;;8.15;81.02
72157;BME280;60035;52.122;5.406;2023-04-19T05:54:19;102967.91;;;8.19;80.19
72157;BME280;60035;52.122;5.406;2023-04-19T05:56:46;102971.38;;;8.26;79.64
72157;BME280;60035;52.122;5.406;2023-04-19T05:59:13;102971.44;;;8.30;78.89
72157;BME280;60035;52.122;5.406;2023-04-19T06:01:40;102973.19;;;8.33;77.82
72157;BME280;60035;52.122;5.406;2023-04-19T06:04:06;102970.72;;;8.38;77.54
72157;BME280;60035;52.122;5.406;2023-04-19T06:06:33;102971.63;;;8.43;76.52
72157;BME280;60035;52.122;5.406;2023-04-19T06:09:00;102965.75;;;8.45;76.12
72157;BME280;60035;52.122;5.406;2023-04-19T06:11:26;102970.91;;;8.50;75.07
72157;BME280;60035;52.122;5.406;2023-04-19T06:14:09;102977.84;;;8.59;74.07
72157;BME280;60035;52.122;5.406;2023-04-19T06:16:35;102970.25;;;8.65;72.67
72157;BME280;60035;52.122;5.406;2023-04-19T06:19:02;102977.09;;;8.69;72.25
72157;BME280;60035;52.122;5.406;2023-04-19T06:21:29;102979.72;;;8.72;70.17
72157;BME280;60035;52.122;5.406;2023-04-19T06:23:57;102978.91;;;8.78;70.52
72157;BME280;60035;52.122;5.406;2023-04-19T06:26:23;102979.94;;;8.89;70.07
72157;BME280;60035;52.122;5.406;2023-04-19T06:28:50;102973.22;;;9.00;69.68
72157;BME280;60035;52.122;5.406;2023-04-19T06:31:17;102972.50;;;9.11;68.45
72157;BME280;60035;52.122;5.406;2023-04-19T06:33:44;102975.13;;;9.19;68.24
72157;BME280;60035;52.122;5.406;2023-04-19T06:36:11;102973.50;;;9.25;66.17
72157;BME280;60035;52.122;5.406;2023-04-19T06:38:38;102980.38;;;9.32;65.89
72157;BME280;60035;52.122;5.406;2023-04-19T06:41:06;102977.88;;;9.36;63.60
72157;BME280;60035;52.122;5.406;2023-04-19T06:43:34;102982.19;;;9.40;63.12
72157;BME280;60035;52.122;5.406;2023-04-19T06:46:02;102982.19;;;9.41;62.83
72157;BME280;60035;52.122;5.406;2023-04-19T06:48:30;102973.69;;;9.45;61.87
72157;BME280;60035;52.122;5.406;2023-04-19T06:50:56;102982.28;;;9.49;60.80
72157;BME280;60035;52.122;5.406;2023-04-19T06:53:23;102983.19;;;9.54;61.23
72157;BME280;60035;52.122;5.406;2023-04-19T06:55:57;102981.53;;;9.61;60.42
72157;BME280;60035;52.122;5.406;2023-04-19T06:58:24;102978.16;;;9.65;60.54
72157;BME280;60035;52.122;5.406;2023-04-19T07:00:51;102981.59;;;9.69;60.14
72157;BME280;60035;52.122;5.406;2023-04-19T07:03:17;102974.78;;;9.72;60.02
72157;BME280;60035;52.122;5.406;2023-04-19T07:05:44;102981.69;;;9.79;59.63
72157;BME280;60035;52.122;5.406;2023-04-19T07:08:11;102974.91;;;9.84;58.88
72157;BME280;60035;52.122;5.406;2023-04-19T07:10:38;102973.19;;;9.85;57.58
72157;BME280;60035;52.122;5.406;2023-04-19T07:13:04;102980.88;;;9.88;57.78
72157;BME280;60035;52.122;5.406;2023-04-19T07:15:31;102976.72;;;9.96;57.22
72157;BME280;60035;52.122;5.406;2023-04-19T07:17:57;102982.69;;;10.00;56.26
72157;BME280;60035;52.122;5.406;2023-04-19T07:20:24;102978.47;;;10.04;56.57
72157;BME280;60035;52.122;5.406;2023-04-19T07:22:50;102982.72;;;10.05;56.49
72157;BME280;60035;52.122;5.406;2023-04-19T07:25:17;102981.91;;;10.07;55.41
72157;BME280;60035;52.122;5.406;2023-04-19T07:27:44;102981.91;;;10.07;54.78
72157;BME280;60035;52.122;5.406;2023-04-19T07:30:10;102980.22;;;10.11;54.65
72157;BME280;60035;52.122;5.406;2023-04-19T07:32:38;102981.06;;;10.11;53.54
72157;BME280;60035;52.122;5.406;2023-04-19T07:35:05;102985.34;;;10.12;53.86
72157;BME280;60035;52.122;5.406;2023-04-19T07:37:32;102971.72;;;10.16;53.41
72157;BME280;60035;52.122;5.406;2023-04-19T07:39:58;102985.41;;;10.22;52.91
72157;BME280;60035;52.122;5.406;2023-04-19T07:42:25;102979.47;;;10.23;53.11
72157;BME280;60035;52.122;5.406;2023-04-19T07:44:52;102972.63;;;10.26;52.59
72157;BME280;60035;52.122;5.406;2023-04-19T07:47:18;102972.69;;;10.32;52.98
72157;BME280;60035;52.122;5.406;2023-04-19T07:49:45;102977.88;;;10.45;53.29
72157;BME280;60035;52.122;5.406;2023-04-19T07:52:11;102977.97;;;10.56;53.48
72157;BME280;60035;52.122;5.406;2023-04-19T07:54:38;102973.69;;;10.58;52.88
72157;BME280;60035;52.122;5.406;2023-04-19T07:57:04;102990.78;;;10.57;51.81
72157;BME280;60035;52.122;5.406;2023-04-19T07:59:31;102982.22;;;10.58;51.58
72157;BME280;60035;52.122;5.406;2023-04-19T08:01:58;102989.09;;;10.64;52.37
72157;BME280;60035;52.122;5.406;2023-04-19T08:04:25;102978.88;;;10.70;50.81
72157;BME280;60035;52.122;5.406;2023-04-19T08:06:53;102978.88;;;10.65;50.26
72157;BME280;60035;52.122;5.406;2023-04-19T08:09:20;102972.91;;;10.65;50.59
72157;BME280;60035;52.122;5.406;2023-04-19T08:11:47;102983.16;;;10.71;50.40
72157;BME280;60035;52.122;5.406;2023-04-19T08:14:13;102981.47;;;10.73;50.26
72157;BME280;60035;52.122;5.406;2023-04-19T08:16:58;102978.94;;;10.84;50.29
72157;BME280;60035;52.122;5.406;2023-04-19T08:19:31;102970.44;;;10.93;49.31
72157;BME280;60035;52.122;5.406;2023-04-19T08:21:57;102969.59;;;11.03;48.94
72157;BME280;60035;52.122;5.406;2023-04-19T08:24:24;102973.03;;;11.08;49.11
72157;BME280;60035;52.122;5.406;2023-04-19T08:26:52;102977.34;;;11.17;49.25
72157;BME280;60035;52.122;5.406;2023-04-19T08:29:20;102972.22;;;11.28;49.48
72157;BME280;60035;52.122;5.406;2023-04-19T08:31:47;102975.66;;;11.31;48.37
72157;BME280;60035;52.122;5.406;2023-04-19T08:34:14;102985.91;;;11.36;48.16
72157;BME280;60035;52.122;5.406;2023-04-19T08:36:40;102973.97;;;11.40;47.86
72157;BME280;60035;52.122;5.406;2023-04-19T08:39:17;102976.50;;;11.43;47.71
72157;BME280;60035;52.122;5.406;2023-04-19T08:42:06;102972.25;;;11.46;47.75
72157;BME280;60035;52.122;5.406;2023-04-19T08:44:49;102955.16;;;11.48;46.72
72157;BME280;60035;52.122;5.406;2023-04-19T08:47:36;102962.03;;;11.60;48.12
72157;BME280;60035;52.122;5.406;2023-04-19T08:50:25;102957.72;;;11.70;47.11
72157;BME280;60035;52.122;5.406;2023-04-19T08:53:01;102960.31;;;11.75;47.49
72157;BME280;60035;52.122;5.406;2023-04-19T08:55:48;102964.56;;;11.93;47.46
72157;BME280;60035;52.122;5.406;2023-04-19T08:58:18;102953.44;;;12.05;46.38
72157;BME280;60035;52.122;5.406;2023-04-19T09:01:06;102953.44;;;12.12;46.02
72157;BME280;60035;52.122;5.406;2023-04-19T09:03:42;102957.69;;;12.20;46.18
72157;BME280;60035;52.122;5.406;2023-04-19T09:06:26;102957.69;;;12.30;45.21
72157;BME280;60035;52.122;5.406;2023-04-19T09:09:13;102958.53;;;12.29;44.52
72157;BME280;60035;52.122;5.406;2023-04-19T09:11:59;102961.97;;;12.30;43.81
72157;BME280;60035;52.122;5.406;2023-04-19T09:14:27;102946.56;;;12.33;43.33
72157;BME280;60035;52.122;5.406;2023-04-19T09:17:10;102946.53;;;12.42;43.57
72157;BME280;60035;52.122;5.406;2023-04-19T09:19:45;102954.19;;;12.50;43.46
72157;BME280;60035;52.122;5.406;2023-04-19T09:22:12;102952.44;;;12.57;43.08
72157;BME280;60035;52.122;5.406;2023-04-19T09:24:40;102938.72;;;12.64;42.53
72157;BME280;60035;52.122;5.406;2023-04-19T09:27:09;102951.50;;;12.76;42.39
72157;BME280;60035;52.122;5.406;2023-04-19T09:29:37;102944.63;;;12.81;41.55
72157;BME280;60035;52.122;5.406;2023-04-19T09:35:15;102942.91;;;12.85;42.61
72157;BME280;60035;52.122;5.406;2023-04-19T09:37:41;102941.13;;;12.95;42.25
72157;BME280;60035;52.122;5.406;2023-04-19T09:40:23;102938.53;;;13.01;41.27
72157;BME280;60035;52.122;5.406;2023-04-19T09:42:50;102933.41;;;12.95;41.30
72157;BME280;60035;52.122;5.406;2023-04-19T09:45:19;102931.66;;;13.02;41.72
72157;BME280;60035;52.122;5.406;2023-04-19T09:48:03;102938.41;;;13.24;41.96
72157;BME280;60035;52.122;5.406;2023-04-19T09:50:31;102933.22;;;13.29;41.92
72157;BME280;60035;52.122;5.406;2023-04-19T09:53:04;102932.28;;;13.41;41.26
72157;BME280;60035;52.122;5.406;2023-04-19T09:55:33;102936.47;;;13.56;41.36
72157;BME280;60035;52.122;5.406;2023-04-19T09:58:19;102944.19;;;13.56;40.03
72157;BME280;60035;52.122;5.406;2023-04-19T10:00:47;102938.22;;;13.49;40.34
72157;BME280;60035;52.122;5.406;2023-04-19T10:03:20;102939.00;;;13.60;40.28
72157;BME280;60035;52.122;5.406;2023-04-19T10:05:48;102939.00;;;13.60;39.85
72157;BME280;60035;52.122;5.406;2023-04-19T10:08:16;102931.19;;;13.71;40.21
72157;BME280;60035;52.122;5.406;2023-04-19T10:10:44;102925.03;;;13.85;40.09
72157;BME280;60035;52.122;5.406;2023-04-19T10:13:12;102918.00;;;14.02;40.34
72157;BME280;60035;52.122;5.406;2023-04-19T10:15:47;102918.69;;;14.20;39.69
72157;BME280;60035;52.122;5.406;2023-04-19T10:18:24;102914.41;;;14.19;39.45
72157;BME280;60035;52.122;5.406;2023-04-19T10:20:56;102919.41;;;14.29;39.37
72157;BME280;60035;52.122;5.406;2023-04-19T10:23:23;102911.53;;;14.43;38.82
72157;BME280;60035;52.122;5.406;2023-04-19T10:25:55;102908.13;;;14.41;38.35
72157;BME280;60035;52.122;5.406;2023-04-19T10:28:22;102907.19;;;14.45;38.40
72157;BME280;60035;52.122;5.406;2023-04-19T10:30:54;102901.88;;;14.58;38.29
72157;BME280;60035;52.122;5.406;2023-04-19T10:33:26;102908.66;;;14.68;37.74
72157;BME280;60035;52.122;5.406;2023-04-19T10:35:57;102901.81;;;14.62;37.11
72157;BME280;60035;52.122;5.406;2023-04-19T10:41:05;102907.72;;;14.75;36.90
72157;BME280;60035;52.122;5.406;2023-04-19T10:46:34;102889.66;;;14.75;36.94
72157;BME280;60035;52.122;5.406;2023-04-19T10:49:03;102903.19;;;14.91;37.25
72157;BME280;60035;52.122;5.406;2023-04-19T10:51:34;102898.69;;;15.06;37.31
72157;BME280;60035;52.122;5.406;2023-04-19T10:54:26;102892.47;;;15.16;35.17
72157;BME280;60035;52.122;5.406;2023-04-19T10:57:09;102892.47;;;15.16;36.34
72157;BME280;60035;52.122;5.406;2023-04-19T10:59:37;102889.75;;;15.25;36.86
72157;BME280;60035;52.122;5.406;2023-04-19T11:04:56;102867.63;;;15.62;35.69
72157;BME280;60035;52.122;5.406;2023-04-19T11:07:23;102875.88;;;15.82;34.93
72157;BME280;60035;52.122;5.406;2023-04-19T11:09:50;102877.59;;;15.82;35.06
72157;BME280;60035;52.122;5.406;2023-04-19T11:12:19;102877.41;;;15.93;34.75
72157;BME280;60035;52.122;5.406;2023-04-19T11:14:54;102863.84;;;15.80;34.21
72157;BME280;60035;52.122;5.406;2023-04-19T11:17:23;102859.34;;;15.91;35.17
72157;BME280;60035;52.122;5.406;2023-04-19T11:22:38;102851.22;;;16.11;33.74
72157;BME280;60035;52.122;5.406;2023-04-19T11:27:32;102851.66;;;16.30;32.87
72157;BME280;60035;52.122;5.406;2023-04-19T11:30:07;102841.19;;;16.37;32.54
72157;BME280;60035;52.122;5.406;2023-04-19T11:32:35;102836.91;;;16.36;32.70
72157;BME280;60035;52.122;5.406;2023-04-19T11:35:08;102832.78;;;16.27;32.09
72157;BME280;60035;52.122;5.406;2023-04-19T11:37:36;102831.47;;;16.07;31.67
72157;BME280;60035;52.122;5.406;2023-04-19T11:40:04;102826.06;;;16.20;32.66
72157;BME280;60035;52.122;5.406;2023-04-19T11:42:32;102824.16;;;16.28;32.07
72157;BME280;60035;52.122;5.406;2023-04-19T11:44:58;102822.47;;;16.25;30.77
72157;BME280;60035;52.122;5.406;2023-04-19T11:47:26;102819.69;;;16.35;31.22
72157;BME280;60035;52.122;5.406;2023-04-19T11:49:56;102822.84;;;16.47;30.71
72157;BME280;60035;52.122;5.406;2023-04-19T11:52:24;102808.00;;;16.56;29.76
72157;BME280;60035;52.122;5.406;2023-04-19T11:54:52;102799.84;;;16.73;30.14
72157;BME280;60035;52.122;5.406;2023-04-19T11:57:29;102804.91;;;16.79;30.31
72157;BME280;60035;52.122;5.406;2023-04-19T12:02:39;102778.44;;;17.02;28.93
72157;BME280;60035;52.122;5.406;2023-04-19T12:05:08;102801.66;;;17.05;29.71
72157;BME280;60035;52.122;5.406;2023-04-19T12:07:35;102803.44;;;17.38;30.19
72157;BME280;60035;52.122;5.406;2023-04-19T12:10:10;102792.41;;;17.62;29.06
72157;BME280;60035;52.122;5.406;2023-04-19T12:12:37;102803.44;;;17.69;28.68
72157;BME280;60035;52.122;5.406;2023-04-19T12:15:05;102799.19;;;17.67;28.64
72157;BME280;60035;52.122;5.406;2023-04-19T12:17:31;102791.63;;;17.59;28.36
72157;BME280;60035;52.122;5.406;2023-04-19T12:19:58;102796.84;;;17.57;27.49
72157;BME280;60035;52.122;5.406;2023-04-19T12:22:24;102786.09;;;17.71;27.31
72157;BME280;60035;52.122;5.406;2023-04-19T12:24:51;102787.03;;;18.00;27.40
72157;BME280;60035;52.122;5.406;2023-04-19T12:27:18;102786.84;;;18.06;27.76
72157;BME280;60035;52.122;5.406;2023-04-19T12:29:45;102785.97;;;18.06;26.94
72157;BME280;60035;52.122;5.406;2023-04-19T12:32:11;102783.28;;;17.79;27.28
72157;BME280;60035;52.122;5.406;2023-04-19T12:34:38;102774.75;;;17.75;27.16
72157;BME280;60035;52.122;5.406;2023-04-19T12:37:04;102768.47;;;17.84;27.98
72157;BME280;60035;52.122;5.406;2023-04-19T12:39:31;102779.50;;;17.91;27.21
72157;BME280;60035;52.122;5.406;2023-04-19T12:41:57;102765.53;;;17.96;26.54
72157;BME280;60035;52.122;5.406;2023-04-19T12:44:24;102778.66;;;17.90;27.12
72157;BME280;60035;52.122;5.406;2023-04-19T12:46:51;102767.06;;;17.72;26.74
72157;BME280;60035;52.122;5.406;2023-04-19T12:49:20;102767.94;;;17.73;28.22
72157;BME280;60035;52.122;5.406;2023-04-19T12:51:46;102763.75;;;17.98;28.33
72157;BME280;60035;52.122;5.406;2023-04-19T12:54:14;102753.69;;;18.16;27.41
72157;BME280;60035;52.122;5.406;2023-04-19T12:56:40;102749.03;;;18.27;27.43
72157;BME280;60035;52.122;5.406;2023-04-19T12:59:07;102738.81;;;18.23;26.96
72157;BME280;60035;52.122;5.406;2023-04-19T13:01:33;102745.03;;;18.17;27.55
72157;BME280;60035;52.122;5.406;2023-04-19T13:04:00;102745.16;;;18.41;27.45
72157;BME280;60035;52.122;5.406;2023-04-19T13:06:27;102748.22;;;18.54;27.67
72157;BME280;60035;52.122;5.406;2023-04-19T13:08:53;102741.75;;;18.39;27.14
72157;BME280;60035;52.122;5.406;2023-04-19T13:11:20;102738.84;;;18.48;26.85
72157;BME280;60035;52.122;5.406;2023-04-19T13:13:49;102728.69;;;18.42;26.26
72157;BME280;60035;52.122;5.406;2023-04-19T13:16:17;102715.88;;;18.37;26.02
72157;BME280;60035;52.122;5.406;2023-04-19T13:18:44;102717.41;;;18.43;26.93
72157;BME280;60035;52.122;5.406;2023-04-19T13:21:10;102721.94;;;18.36;26.31